sensor_id;sensor_type;location;lat;lon;timestamp;temperature;humidity
3504;DHT22;1766;53.490;10.174;2022-10-18T00:01:42;22.00;59.10
3504;DHT22;1766;53.490;10.174;2022-10-18T00:03:44;22.00;59.10
3504;DHT22;1766;53.490;10.174;2022-10-18T00:05:48;22.00;59.00
3504;DHT22;1766;53.490;10.174;2022-10-18T00:07:50;22.00;58.90
3504;DHT22;1766;53.490;10.174;2022-10-18T00:09:52;22.00;59.00
3504;DHT22;1766;53.490;10.174;2022-10-18T00:11:54;22.00;59.00
3504;DHT22;1766;53.490;10.174;2022-10-18T00:13:56;22.00;59.20
3504;DHT22;1766;53.490;10.174;2022-10-18T00:16:00;22.00;59.10
3504;DHT22;1766;53.490;10.174;2022-10-18T00:18:03;22.00;59.10
3504;DHT22;1766;53.490;10.174;2022-10-18T00:20:05;22.10;58.90
3504;DHT22;1766;53.490;10.174;2022-10-18T00:22:09;22.00;58.90
3504;DHT22;1766;53.490;10.174;2022-10-18T00:24:11;22.00;58.90
3504;DHT22;1766;53.490;10.174;2022-10-18T00:26:14;21.90;58.90
3504;DHT22;1766;53.490;10.174;2022-10-18T00:28:18;21.90;59.10
3504;DHT22;1766;53.490;10.174;2022-10-18T00:30:20;21.90;58.90
3504;DHT22;1766;53.490;10.174;2022-10-18T00:32:22;21.90;59.00
3504;DHT22;1766;53.490;10.174;2022-10-18T00:34:24;21.90;59.00
3504;DHT22;1766;53.490;10.174;2022-10-18T00:36:27;21.90;59.10
3504;DHT22;1766;53.490;10.174;2022-10-18T00:38:31;21.90;59.10
3504;DHT22;1766;53.490;10.174;2022-10-18T00:40:33;21.90;59.00
3504;DHT22;1766;53.490;10.174;2022-10-18T00:42:35;21.90;58.90
3504;DHT22;1766;53.490;10.174;2022-10-18T00:45:03;21.90;59.00
3504;DHT22;1766;53.490;10.174;2022-10-18T00:47:15;21.80;58.90
3504;DHT22;1766;53.490;10.174;2022-10-18T00:49:20;21.80;58.60
3504;DHT22;1766;53.490;10.174;2022-10-18T00:51:27;21.80;58.70
3504;DHT22;1766;53.490;10.174;2022-10-18T00:53:32;21.80;58.60
3504;DHT22;1766;53.490;10.174;2022-10-18T00:55:34;21.80;58.50
3504;DHT22;1766;53.490;10.174;2022-10-18T00:57:37;21.80;58.60
3504;DHT22;1766;53.490;10.174;2022-10-18T00:59:40;21.80;58.70
3504;DHT22;1766;53.490;10.174;2022-10-18T01:01:43;21.70;58.60
3504;DHT22;1766;53.490;10.174;2022-10-18T01:03:46;21.70;58.50
3504;DHT22;1766;53.490;10.174;2022-10-18T01:05:48;21.70;58.50
3504;DHT22;1766;53.490;10.174;2022-10-18T01:10:26;21.70;58.40
3504;DHT22;1766;53.490;10.174;2022-10-18T01:12:39;21.70;58.30
3504;DHT22;1766;53.490;10.174;2022-10-18T01:14:56;21.60;58.10
3504;DHT22;1766;53.490;10.174;2022-10-18T01:17:10;21.60;58.10
3504;DHT22;1766;53.490;10.174;2022-10-18T01:21:53;21.50;58.10
3504;DHT22;1766;53.490;10.174;2022-10-18T01:27:02;21.40;58.20
3504;DHT22;1766;53.490;10.174;2022-10-18T01:29:21;21.40;58.20
3504;DHT22;1766;53.490;10.174;2022-10-18T01:31:35;21.50;58.10
3504;DHT22;1766;53.490;10.174;2022-10-18T01:33:44;21.50;58.00
3504;DHT22;1766;53.490;10.174;2022-10-18T01:35:52;21.40;57.90
3504;DHT22;1766;53.490;10.174;2022-10-18T01:38:00;21.40;58.00
3504;DHT22;1766;53.490;10.174;2022-10-18T01:40:06;21.40;57.90
3504;DHT22;1766;53.490;10.174;2022-10-18T01:42:17;21.30;57.80
3504;DHT22;1766;53.490;10.174;2022-10-18T01:44:23;21.30;57.90
3504;DHT22;1766;53.490;10.174;2022-10-18T01:46:27;21.30;57.90
3504;DHT22;1766;53.490;10.174;2022-10-18T01:48:31;21.30;57.90
3504;DHT22;1766;53.490;10.174;2022-10-18T01:50:37;21.20;57.80
3504;DHT22;1766;53.490;10.174;2022-10-18T01:52:47;21.20;57.60
3504;DHT22;1766;53.490;10.174;2022-10-18T01:54:49;21.20;57.60
3504;DHT22;1766;53.490;10.174;2022-10-18T01:56:55;21.20;57.50
3504;DHT22;1766;53.490;10.174;2022-10-18T01:59:08;21.10;57.50
3504;DHT22;1766;53.490;10.174;2022-10-18T02:01:21;21.10;57.70
3504;DHT22;1766;53.490;10.174;2022-10-18T02:03:30;21.10;57.80
3504;DHT22;1766;53.490;10.174;2022-10-18T02:05:38;21.10;57.80
3504;DHT22;1766;53.490;10.174;2022-10-18T02:07:49;21.10;57.90
3504;DHT22;1766;53.490;10.174;2022-10-18T02:10:00;21.10;58.00
3504;DHT22;1766;53.490;10.174;2022-10-18T02:12:09;21.00;57.90
3504;DHT22;1766;53.490;10.174;2022-10-18T02:14:13;21.10;57.90
3504;DHT22;1766;53.490;10.174;2022-10-18T02:16:20;21.10;58.00
3504;DHT22;1766;53.490;10.174;2022-10-18T02:18:28;21.00;58.00
3504;DHT22;1766;53.490;10.174;2022-10-18T02:20:33;21.00;58.00
3504;DHT22;1766;53.490;10.174;2022-10-18T02:22:38;21.10;58.10
3504;DHT22;1766;53.490;10.174;2022-10-18T02:24:45;21.00;58.10
3504;DHT22;1766;53.490;10.174;2022-10-18T02:26:49;21.00;58.20
3504;DHT22;1766;53.490;10.174;2022-10-18T02:28:51;21.00;58.20
3504;DHT22;1766;53.490;10.174;2022-10-18T02:30:57;21.00;58.30
3504;DHT22;1766;53.490;10.174;2022-10-18T02:33:08;21.00;58.60
3504;DHT22;1766;53.490;10.174;2022-10-18T02:35:18;21.00;58.60
3504;DHT22;1766;53.490;10.174;2022-10-18T02:37:22;21.00;58.60
3504;DHT22;1766;53.490;10.174;2022-10-18T02:39:28;21.10;58.70
3504;DHT22;1766;53.490;10.174;2022-10-18T02:41:31;21.00;58.70
3504;DHT22;1766;53.490;10.174;2022-10-18T02:43:33;21.00;58.60
3504;DHT22;1766;53.490;10.174;2022-10-18T02:45:40;21.00;58.40
3504;DHT22;1766;53.490;10.174;2022-10-18T02:47:42;21.10;58.40
3504;DHT22;1766;53.490;10.174;2022-10-18T02:49:44;21.00;58.40
3504;DHT22;1766;53.490;10.174;2022-10-18T02:51:47;21.00;58.50
3504;DHT22;1766;53.490;10.174;2022-10-18T02:53:48;21.00;58.50
3504;DHT22;1766;53.490;10.174;2022-10-18T02:55:50;21.00;58.50
3504;DHT22;1766;53.490;10.174;2022-10-18T02:57:52;21.00;58.50
3504;DHT22;1766;53.490;10.174;2022-10-18T02:59:54;20.90;58.20
3504;DHT22;1766;53.490;10.174;2022-10-18T03:01:56;21.20;58.30
3504;DHT22;1766;53.490;10.174;2022-10-18T03:03:57;21.00;58.40
3504;DHT22;1766;53.490;10.174;2022-10-18T03:05:59;21.00;58.50
3504;DHT22;1766;53.490;10.174;2022-10-18T03:08:03;21.00;58.40
3504;DHT22;1766;53.490;10.174;2022-10-18T03:10:06;21.00;58.70
3504;DHT22;1766;53.490;10.174;2022-10-18T03:12:08;21.00;58.80
3504;DHT22;1766;53.490;10.174;2022-10-18T03:14:10;20.90;58.70
3504;DHT22;1766;53.490;10.174;2022-10-18T03:16:12;21.00;58.60
3504;DHT22;1766;53.490;10.174;2022-10-18T03:18:14;21.00;58.80
3504;DHT22;1766;53.490;10.174;2022-10-18T03:20:16;21.00;58.70
3504;DHT22;1766;53.490;10.174;2022-10-18T03:22:18;21.00;58.80
3504;DHT22;1766;53.490;10.174;2022-10-18T03:24:21;21.00;58.90
3504;DHT22;1766;53.490;10.174;2022-10-18T03:26:22;21.00;59.10
3504;DHT22;1766;53.490;10.174;2022-10-18T03:28:24;21.00;59.20
3504;DHT22;1766;53.490;10.174;2022-10-18T03:30:26;21.00;59.30
3504;DHT22;1766;53.490;10.174;2022-10-18T03:32:28;21.10;59.40
3504;DHT22;1766;53.490;10.174;2022-10-18T03:34:30;21.10;59.30
3504;DHT22;1766;53.490;10.174;2022-10-18T03:36:32;21.10;59.40
3504;DHT22;1766;53.490;10.174;2022-10-18T03:38:34;21.10;59.30
3504;DHT22;1766;53.490;10.174;2022-10-18T03:40:37;21.20;59.40
3504;DHT22;1766;53.490;10.174;2022-10-18T03:42:39;21.10;59.20
3504;DHT22;1766;53.490;10.174;2022-10-18T03:44:40;21.20;59.30
3504;DHT22;1766;53.490;10.174;2022-10-18T03:46:42;21.20;59.10
3504;DHT22;1766;53.490;10.174;2022-10-18T03:48:44;21.20;59.20
3504;DHT22;1766;53.490;10.174;2022-10-18T03:50:46;21.10;59.20
3504;DHT22;1766;53.490;10.174;2022-10-18T03:52:48;21.20;59.20
3504;DHT22;1766;53.490;10.174;2022-10-18T03:54:49;21.20;59.30
3504;DHT22;1766;53.490;10.174;2022-10-18T03:56:52;21.10;59.20
3504;DHT22;1766;53.490;10.174;2022-10-18T03:58:54;21.30;59.20
3504;DHT22;1766;53.490;10.174;2022-10-18T04:00:57;21.10;58.90
3504;DHT22;1766;53.490;10.174;2022-10-18T04:02:58;21.10;58.80
3504;DHT22;1766;53.490;10.174;2022-10-18T04:05:00;21.10;58.90
3504;DHT22;1766;53.490;10.174;2022-10-18T04:07:02;21.00;58.80
3504;DHT22;1766;53.490;10.174;2022-10-18T04:09:04;20.90;58.70
3504;DHT22;1766;53.490;10.174;2022-10-18T04:11:06;21.00;59.00
3504;DHT22;1766;53.490;10.174;2022-10-18T04:13:10;21.00;58.80
3504;DHT22;1766;53.490;10.174;2022-10-18T04:15:12;21.00;58.80
3504;DHT22;1766;53.490;10.174;2022-10-18T04:17:14;21.00;58.80
3504;DHT22;1766;53.490;10.174;2022-10-18T04:19:16;21.00;58.60
3504;DHT22;1766;53.490;10.174;2022-10-18T04:21:18;21.00;58.50
3504;DHT22;1766;53.490;10.174;2022-10-18T04:23:19;21.00;58.40
3504;DHT22;1766;53.490;10.174;2022-10-18T04:25:21;20.90;58.20
3504;DHT22;1766;53.490;10.174;2022-10-18T04:27:23;20.90;57.90
3504;DHT22;1766;53.490;10.174;2022-10-18T04:29:26;20.90;57.80
3504;DHT22;1766;53.490;10.174;2022-10-18T04:31:28;20.90;57.70
3504;DHT22;1766;53.490;10.174;2022-10-18T04:33:30;20.90;57.60
3504;DHT22;1766;53.490;10.174;2022-10-18T04:35:32;20.80;57.60
3504;DHT22;1766;53.490;10.174;2022-10-18T04:37:34;20.80;57.40
3504;DHT22;1766;53.490;10.174;2022-10-18T04:39:36;20.80;57.30
3504;DHT22;1766;53.490;10.174;2022-10-18T04:41:37;20.80;57.20
3504;DHT22;1766;53.490;10.174;2022-10-18T04:43:39;20.80;57.30
3504;DHT22;1766;53.490;10.174;2022-10-18T04:45:43;20.70;57.20
3504;DHT22;1766;53.490;10.174;2022-10-18T04:47:45;20.70;57.00
3504;DHT22;1766;53.490;10.174;2022-10-18T04:49:47;20.70;57.10
3504;DHT22;1766;53.490;10.174;2022-10-18T04:51:49;20.60;57.10
3504;DHT22;1766;53.490;10.174;2022-10-18T04:53:50;20.50;57.00
3504;DHT22;1766;53.490;10.174;2022-10-18T04:55:52;20.50;57.10
3504;DHT22;1766;53.490;10.174;2022-10-18T04:57:54;20.50;57.20
3504;DHT22;1766;53.490;10.174;2022-10-18T04:59:56;20.50;57.00
3504;DHT22;1766;53.490;10.174;2022-10-18T05:01:59;20.50;57.10
3504;DHT22;1766;53.490;10.174;2022-10-18T05:04:01;20.40;57.00
3504;DHT22;1766;53.490;10.174;2022-10-18T05:06:03;20.40;57.10
3504;DHT22;1766;53.490;10.174;2022-10-18T05:08:05;20.40;57.00
3504;DHT22;1766;53.490;10.174;2022-10-18T05:10:08;20.40;57.10
3504;DHT22;1766;53.490;10.174;2022-10-18T05:12:10;20.40;57.20
3504;DHT22;1766;53.490;10.174;2022-10-18T05:14:12;20.40;57.10
3504;DHT22;1766;53.490;10.174;2022-10-18T05:16:13;20.30;57.00
3504;DHT22;1766;53.490;10.174;2022-10-18T05:18:17;20.40;57.20
3504;DHT22;1766;53.490;10.174;2022-10-18T05:20:19;20.30;57.00
3504;DHT22;1766;53.490;10.174;2022-10-18T05:22:21;20.40;57.20
3504;DHT22;1766;53.490;10.174;2022-10-18T05:24:23;20.30;57.00
3504;DHT22;1766;53.490;10.174;2022-10-18T05:26:25;20.40;57.20
3504;DHT22;1766;53.490;10.174;2022-10-18T05:28:27;20.40;57.30
3504;DHT22;1766;53.490;10.174;2022-10-18T05:30:28;20.30;57.20
3504;DHT22;1766;53.490;10.174;2022-10-18T05:32:30;20.30;57.20
3504;DHT22;1766;53.490;10.174;2022-10-18T05:34:33;20.30;57.20
3504;DHT22;1766;53.490;10.174;2022-10-18T05:36:35;20.30;57.20
3504;DHT22;1766;53.490;10.174;2022-10-18T05:38:38;20.30;57.10
3504;DHT22;1766;53.490;10.174;2022-10-18T05:40:42;20.40;57.30
3504;DHT22;1766;53.490;10.174;2022-10-18T05:42:43;20.30;57.00
3504;DHT22;1766;53.490;10.174;2022-10-18T05:44:45;20.30;57.00
3504;DHT22;1766;53.490;10.174;2022-10-18T05:46:47;20.30;57.30
3504;DHT22;1766;53.490;10.174;2022-10-18T05:48:49;20.30;57.50
3504;DHT22;1766;53.490;10.174;2022-10-18T05:50:53;20.40;57.70
3504;DHT22;1766;53.490;10.174;2022-10-18T05:52:57;20.20;57.60
3504;DHT22;1766;53.490;10.174;2022-10-18T05:54:59;20.30;57.70
3504;DHT22;1766;53.490;10.174;2022-10-18T05:57:01;20.30;57.70
3504;DHT22;1766;53.490;10.174;2022-10-18T05:59:03;20.30;57.90
3504;DHT22;1766;53.490;10.174;2022-10-18T06:01:09;20.30;58.20
3504;DHT22;1766;53.490;10.174;2022-10-18T06:03:11;20.30;58.10
3504;DHT22;1766;53.490;10.174;2022-10-18T06:05:13;20.30;58.20
3504;DHT22;1766;53.490;10.174;2022-10-18T06:07:16;20.40;58.40
3504;DHT22;1766;53.490;10.174;2022-10-18T06:09:18;20.40;58.40
3504;DHT22;1766;53.490;10.174;2022-10-18T06:11:20;20.40;58.30
3504;DHT22;1766;53.490;10.174;2022-10-18T06:13:22;20.40;58.30
3504;DHT22;1766;53.490;10.174;2022-10-18T06:15:24;20.40;58.50
3504;DHT22;1766;53.490;10.174;2022-10-18T06:17:25;20.40;58.60
3504;DHT22;1766;53.490;10.174;2022-10-18T06:19:27;20.40;58.60
3504;DHT22;1766;53.490;10.174;2022-10-18T06:21:29;20.40;58.60
3504;DHT22;1766;53.490;10.174;2022-10-18T06:23:32;20.50;58.60
3504;DHT22;1766;53.490;10.174;2022-10-18T06:25:34;20.50;58.60
3504;DHT22;1766;53.490;10.174;2022-10-18T06:27:36;20.50;58.60
3504;DHT22;1766;53.490;10.174;2022-10-18T06:29:38;20.50;58.60
3504;DHT22;1766;53.490;10.174;2022-10-18T06:31:40;20.50;58.60
3504;DHT22;1766;53.490;10.174;2022-10-18T06:33:42;20.50;58.60
3504;DHT22;1766;53.490;10.174;2022-10-18T06:35:53;20.50;58.70
3504;DHT22;1766;53.490;10.174;2022-10-18T06:37:56;20.60;58.90
3504;DHT22;1766;53.490;10.174;2022-10-18T06:39:59;20.60;58.80
3504;DHT22;1766;53.490;10.174;2022-10-18T06:42:01;20.60;58.90
3504;DHT22;1766;53.490;10.174;2022-10-18T06:44:03;20.60;59.00
3504;DHT22;1766;53.490;10.174;2022-10-18T06:46:13;20.60;58.90
3504;DHT22;1766;53.490;10.174;2022-10-18T06:48:15;20.60;58.70
3504;DHT22;1766;53.490;10.174;2022-10-18T06:50:17;20.60;58.80
3504;DHT22;1766;53.490;10.174;2022-10-18T06:52:18;20.60;58.90
3504;DHT22;1766;53.490;10.174;2022-10-18T06:54:22;20.60;58.90
3504;DHT22;1766;53.490;10.174;2022-10-18T06:56:25;20.60;58.90
3504;DHT22;1766;53.490;10.174;2022-10-18T06:58:27;20.70;59.00
3504;DHT22;1766;53.490;10.174;2022-10-18T07:00:29;20.70;59.20
3504;DHT22;1766;53.490;10.174;2022-10-18T07:02:31;20.80;59.10
3504;DHT22;1766;53.490;10.174;2022-10-18T07:04:32;20.70;59.00
3504;DHT22;1766;53.490;10.174;2022-10-18T07:06:34;20.70;59.20
3504;DHT22;1766;53.490;10.174;2022-10-18T07:08:36;20.70;59.20
3504;DHT22;1766;53.490;10.174;2022-10-18T07:10:38;20.80;59.30
3504;DHT22;1766;53.490;10.174;2022-10-18T07:12:42;20.80;59.20
3504;DHT22;1766;53.490;10.174;2022-10-18T07:14:45;20.80;59.20
3504;DHT22;1766;53.490;10.174;2022-10-18T07:16:47;20.70;59.10
3504;DHT22;1766;53.490;10.174;2022-10-18T07:18:50;20.80;59.30
3504;DHT22;1766;53.490;10.174;2022-10-18T07:20:52;20.80;59.40
3504;DHT22;1766;53.490;10.174;2022-10-18T07:22:54;20.80;59.20
3504;DHT22;1766;53.490;10.174;2022-10-18T07:24:57;20.80;59.30
3504;DHT22;1766;53.490;10.174;2022-10-18T07:26:58;20.80;59.50
3504;DHT22;1766;53.490;10.174;2022-10-18T07:29:05;20.80;59.30
3504;DHT22;1766;53.490;10.174;2022-10-18T07:31:09;20.80;59.70
3504;DHT22;1766;53.490;10.174;2022-10-18T07:33:11;20.90;59.40
3504;DHT22;1766;53.490;10.174;2022-10-18T07:35:13;20.90;59.60
3504;DHT22;1766;53.490;10.174;2022-10-18T07:37:15;20.90;59.50
3504;DHT22;1766;53.490;10.174;2022-10-18T07:39:17;20.90;59.60
3504;DHT22;1766;53.490;10.174;2022-10-18T07:41:19;20.90;59.60
3504;DHT22;1766;53.490;10.174;2022-10-18T07:43:21;20.80;59.50
3504;DHT22;1766;53.490;10.174;2022-10-18T07:45:24;20.90;59.50
3504;DHT22;1766;53.490;10.174;2022-10-18T07:47:26;20.90;59.60
3504;DHT22;1766;53.490;10.174;2022-10-18T07:49:28;20.80;59.60
3504;DHT22;1766;53.490;10.174;2022-10-18T07:51:30;21.00;59.70
3504;DHT22;1766;53.490;10.174;2022-10-18T07:53:34;21.00;59.70
3504;DHT22;1766;53.490;10.174;2022-10-18T07:55:36;21.10;59.90
3504;DHT22;1766;53.490;10.174;2022-10-18T07:57:38;21.10;59.80
3504;DHT22;1766;53.490;10.174;2022-10-18T07:59:39;21.20;59.90
3504;DHT22;1766;53.490;10.174;2022-10-18T08:01:45;21.30;59.90
3504;DHT22;1766;53.490;10.174;2022-10-18T08:03:47;21.30;59.70
3504;DHT22;1766;53.490;10.174;2022-10-18T08:05:52;21.30;59.80
3504;DHT22;1766;53.490;10.174;2022-10-18T08:07:54;21.30;60.50
3504;DHT22;1766;53.490;10.174;2022-10-18T08:09:56;21.40;59.80
3504;DHT22;1766;53.490;10.174;2022-10-18T08:11:59;21.30;59.60
3504;DHT22;1766;53.490;10.174;2022-10-18T08:14:00;21.40;59.70
3504;DHT22;1766;53.490;10.174;2022-10-18T08:16:04;21.30;59.60
3504;DHT22;1766;53.490;10.174;2022-10-18T08:18:09;21.40;59.90
3504;DHT22;1766;53.490;10.174;2022-10-18T08:20:11;21.40;59.80
3504;DHT22;1766;53.490;10.174;2022-10-18T08:22:13;21.40;59.60
3504;DHT22;1766;53.490;10.174;2022-10-18T08:24:14;21.40;59.70
3504;DHT22;1766;53.490;10.174;2022-10-18T08:26:18;21.30;59.70
3504;DHT22;1766;53.490;10.174;2022-10-18T08:28:21;21.40;59.80
3504;DHT22;1766;53.490;10.174;2022-10-18T08:30:22;21.50;59.60
3504;DHT22;1766;53.490;10.174;2022-10-18T08:32:25;21.50;59.80
3504;DHT22;1766;53.490;10.174;2022-10-18T08:34:29;21.70;59.90
3504;DHT22;1766;53.490;10.174;2022-10-18T08:36:31;21.60;59.60
3504;DHT22;1766;53.490;10.174;2022-10-18T08:38:34;21.60;59.50
3504;DHT22;1766;53.490;10.174;2022-10-18T08:40:42;21.60;59.70
3504;DHT22;1766;53.490;10.174;2022-10-18T08:42:52;21.60;59.60
3504;DHT22;1766;53.490;10.174;2022-10-18T08:44:59;21.60;59.60
3504;DHT22;1766;53.490;10.174;2022-10-18T08:47:03;21.60;59.30
3504;DHT22;1766;53.490;10.174;2022-10-18T08:49:10;21.60;59.40
3504;DHT22;1766;53.490;10.174;2022-10-18T08:51:26;21.60;59.60
3504;DHT22;1766;53.490;10.174;2022-10-18T08:53:34;21.70;59.70
3504;DHT22;1766;53.490;10.174;2022-10-18T08:55:43;21.70;59.70
3504;DHT22;1766;53.490;10.174;2022-10-18T08:57:47;21.80;59.60
3504;DHT22;1766;53.490;10.174;2022-10-18T08:59:50;21.80;59.50
3504;DHT22;1766;53.490;10.174;2022-10-18T09:02:01;21.90;59.40
3504;DHT22;1766;53.490;10.174;2022-10-18T09:04:22;21.90;59.40
3504;DHT22;1766;53.490;10.174;2022-10-18T09:06:36;22.00;59.10
3504;DHT22;1766;53.490;10.174;2022-10-18T09:08:52;22.00;58.80
3504;DHT22;1766;53.490;10.174;2022-10-18T09:11:10;21.90;58.70
3504;DHT22;1766;53.490;10.174;2022-10-18T09:13:35;21.80;58.40
3504;DHT22;1766;53.490;10.174;2022-10-18T09:15:57;21.70;58.20
3504;DHT22;1766;53.490;10.174;2022-10-18T09:18:10;21.70;58.00
3504;DHT22;1766;53.490;10.174;2022-10-18T09:20:22;21.60;58.10
3504;DHT22;1766;53.490;10.174;2022-10-18T09:22:37;21.60;58.00
3504;DHT22;1766;53.490;10.174;2022-10-18T09:24:45;21.50;57.90
3504;DHT22;1766;53.490;10.174;2022-10-18T09:26:56;21.50;57.60
3504;DHT22;1766;53.490;10.174;2022-10-18T09:29:09;21.40;57.40
3504;DHT22;1766;53.490;10.174;2022-10-18T09:31:39;21.30;57.20
3504;DHT22;1766;53.490;10.174;2022-10-18T09:33:49;21.30;57.40
3504;DHT22;1766;53.490;10.174;2022-10-18T09:35:56;21.30;57.40
3504;DHT22;1766;53.490;10.174;2022-10-18T09:38:03;21.30;57.40
3504;DHT22;1766;53.490;10.174;2022-10-18T09:40:14;21.30;57.60
3504;DHT22;1766;53.490;10.174;2022-10-18T09:42:21;21.30;57.80
3504;DHT22;1766;53.490;10.174;2022-10-18T09:44:30;21.30;57.80
3504;DHT22;1766;53.490;10.174;2022-10-18T09:46:38;21.40;58.00
3504;DHT22;1766;53.490;10.174;2022-10-18T09:48:45;21.40;58.10
3504;DHT22;1766;53.490;10.174;2022-10-18T09:50:53;21.50;58.00
3504;DHT22;1766;53.490;10.174;2022-10-18T09:53:05;21.50;57.90
3504;DHT22;1766;53.490;10.174;2022-10-18T09:55:18;21.50;58.20
3504;DHT22;1766;53.490;10.174;2022-10-18T09:57:26;21.60;58.10
3504;DHT22;1766;53.490;10.174;2022-10-18T09:59:35;21.70;58.20
3504;DHT22;1766;53.490;10.174;2022-10-18T10:01:38;21.70;58.10
3504;DHT22;1766;53.490;10.174;2022-10-18T10:03:41;21.80;57.90
3504;DHT22;1766;53.490;10.174;2022-10-18T10:05:43;21.90;58.00
3504;DHT22;1766;53.490;10.174;2022-10-18T10:07:47;21.90;58.00
3504;DHT22;1766;53.490;10.174;2022-10-18T10:09:56;21.90;57.90
3504;DHT22;1766;53.490;10.174;2022-10-18T10:11:58;21.90;57.80
3504;DHT22;1766;53.490;10.174;2022-10-18T10:14:12;22.00;57.60
3504;DHT22;1766;53.490;10.174;2022-10-18T10:16:15;22.00;57.90
3504;DHT22;1766;53.490;10.174;2022-10-18T10:18:19;22.10;57.50
3504;DHT22;1766;53.490;10.174;2022-10-18T10:20:23;22.10;57.50
3504;DHT22;1766;53.490;10.174;2022-10-18T10:22:33;22.10;57.60
3504;DHT22;1766;53.490;10.174;2022-10-18T10:24:45;22.20;57.70
3504;DHT22;1766;53.490;10.174;2022-10-18T10:26:50;22.30;57.80
3504;DHT22;1766;53.490;10.174;2022-10-18T10:28:59;22.40;57.50
3504;DHT22;1766;53.490;10.174;2022-10-18T10:31:17;22.50;57.30
3504;DHT22;1766;53.490;10.174;2022-10-18T10:33:31;22.50;57.00
3504;DHT22;1766;53.490;10.174;2022-10-18T10:35:37;22.50;56.10
3504;DHT22;1766;53.490;10.174;2022-10-18T10:37:40;22.50;55.30
3504;DHT22;1766;53.490;10.174;2022-10-18T10:39:41;22.60;55.10
3504;DHT22;1766;53.490;10.174;2022-10-18T10:41:46;22.60;55.10
3504;DHT22;1766;53.490;10.174;2022-10-18T10:43:50;22.50;55.00
3504;DHT22;1766;53.490;10.174;2022-10-18T10:45:58;22.50;54.40
3504;DHT22;1766;53.490;10.174;2022-10-18T10:48:05;22.60;54.50
3504;DHT22;1766;53.490;10.174;2022-10-18T10:50:10;22.60;53.70
3504;DHT22;1766;53.490;10.174;2022-10-18T10:52:16;22.60;53.50
3504;DHT22;1766;53.490;10.174;2022-10-18T10:54:21;22.70;53.70
3504;DHT22;1766;53.490;10.174;2022-10-18T10:56:26;22.80;53.40
3504;DHT22;1766;53.490;10.174;2022-10-18T10:58:34;22.90;53.30
3504;DHT22;1766;53.490;10.174;2022-10-18T11:00:42;22.90;52.40
3504;DHT22;1766;53.490;10.174;2022-10-18T11:02:44;22.90;52.20
3504;DHT22;1766;53.490;10.174;2022-10-18T11:04:48;23.00;52.20
3504;DHT22;1766;53.490;10.174;2022-10-18T11:06:57;23.00;52.40
3504;DHT22;1766;53.490;10.174;2022-10-18T11:09:08;23.10;52.30
3504;DHT22;1766;53.490;10.174;2022-10-18T11:11:21;23.20;52.10
3504;DHT22;1766;53.490;10.174;2022-10-18T11:13:32;23.30;52.40
3504;DHT22;1766;53.490;10.174;2022-10-18T11:15:48;23.70;52.60
3504;DHT22;1766;53.490;10.174;2022-10-18T11:18:01;25.20;52.10
3504;DHT22;1766;53.490;10.174;2022-10-18T11:20:18;27.10;48.60
3504;DHT22;1766;53.490;10.174;2022-10-18T11:22:24;28.90;45.00
3504;DHT22;1766;53.490;10.174;2022-10-18T11:24:29;30.50;41.70
3504;DHT22;1766;53.490;10.174;2022-10-18T11:26:39;31.70;39.80
3504;DHT22;1766;53.490;10.174;2022-10-18T11:29:00;32.60;38.00
3504;DHT22;1766;53.490;10.174;2022-10-18T11:31:16;33.00;36.80
3504;DHT22;1766;53.490;10.174;2022-10-18T11:33:24;32.60;36.10
3504;DHT22;1766;53.490;10.174;2022-10-18T11:35:39;32.40;36.10
3504;DHT22;1766;53.490;10.174;2022-10-18T11:37:56;32.00;36.00
3504;DHT22;1766;53.490;10.174;2022-10-18T11:40:19;31.10;36.20
3504;DHT22;1766;53.490;10.174;2022-10-18T11:42:40;30.10;36.60
3504;DHT22;1766;53.490;10.174;2022-10-18T11:44:55;29.80;37.20
3504;DHT22;1766;53.490;10.174;2022-10-18T11:47:04;29.80;36.70
3504;DHT22;1766;53.490;10.174;2022-10-18T11:51:56;29.10;36.70
3504;DHT22;1766;53.490;10.174;2022-10-18T11:54:15;28.50;36.40
3504;DHT22;1766;53.490;10.174;2022-10-18T11:56:27;27.70;37.30
3504;DHT22;1766;53.490;10.174;2022-10-18T11:58:44;27.50;37.30
3504;DHT22;1766;53.490;10.174;2022-10-18T12:01:04;27.60;36.90
3504;DHT22;1766;53.490;10.174;2022-10-18T12:03:21;27.90;37.00
3504;DHT22;1766;53.490;10.174;2022-10-18T12:05:28;28.20;37.10
3504;DHT22;1766;53.490;10.174;2022-10-18T12:07:33;28.80;36.80
3504;DHT22;1766;53.490;10.174;2022-10-18T12:09:42;29.20;36.20
3504;DHT22;1766;53.490;10.174;2022-10-18T12:11:47;29.50;35.80
3504;DHT22;1766;53.490;10.174;2022-10-18T12:13:54;29.70;34.50
3504;DHT22;1766;53.490;10.174;2022-10-18T12:15:59;29.90;34.10
3504;DHT22;1766;53.490;10.174;2022-10-18T12:18:06;29.90;33.60
3504;DHT22;1766;53.490;10.174;2022-10-18T12:20:15;29.90;33.80
3504;DHT22;1766;53.490;10.174;2022-10-18T12:22:23;29.70;33.70
3504;DHT22;1766;53.490;10.174;2022-10-18T12:24:29;29.60;33.90
3504;DHT22;1766;53.490;10.174;2022-10-18T12:26:32;29.60;33.50
3504;DHT22;1766;53.490;10.174;2022-10-18T12:28:43;30.00;33.70
3504;DHT22;1766;53.490;10.174;2022-10-18T12:30:53;30.30;33.30
3504;DHT22;1766;53.490;10.174;2022-10-18T12:33:06;30.50;32.50
3504;DHT22;1766;53.490;10.174;2022-10-18T12:35:15;30.80;32.50
3504;DHT22;1766;53.490;10.174;2022-10-18T12:37:39;31.00;31.90
3504;DHT22;1766;53.490;10.174;2022-10-18T12:39:52;31.20;31.30
3504;DHT22;1766;53.490;10.174;2022-10-18T12:41:56;31.10;30.30
3504;DHT22;1766;53.490;10.174;2022-10-18T12:44:02;30.70;30.40
3504;DHT22;1766;53.490;10.174;2022-10-18T12:46:07;30.00;30.20
3504;DHT22;1766;53.490;10.174;2022-10-18T12:48:29;29.40;30.70
3504;DHT22;1766;53.490;10.174;2022-10-18T12:50:36;28.80;31.30
3504;DHT22;1766;53.490;10.174;2022-10-18T12:52:39;28.70;31.20
3504;DHT22;1766;53.490;10.174;2022-10-18T12:55:00;28.70;31.30
3504;DHT22;1766;53.490;10.174;2022-10-18T12:57:20;28.50;31.40
3504;DHT22;1766;53.490;10.174;2022-10-18T12:59:39;28.30;31.70
3504;DHT22;1766;53.490;10.174;2022-10-18T13:02:07;28.20;32.10
3504;DHT22;1766;53.490;10.174;2022-10-18T13:04:32;28.10;32.50
3504;DHT22;1766;53.490;10.174;2022-10-18T13:09:20;27.50;33.20
3504;DHT22;1766;53.490;10.174;2022-10-18T13:11:36;27.50;33.70
3504;DHT22;1766;53.490;10.174;2022-10-18T13:13:53;27.60;33.60
3504;DHT22;1766;53.490;10.174;2022-10-18T13:16:12;27.80;33.60
3504;DHT22;1766;53.490;10.174;2022-10-18T13:18:27;27.80;33.80
3504;DHT22;1766;53.490;10.174;2022-10-18T13:20:37;27.70;34.00
3504;DHT22;1766;53.490;10.174;2022-10-18T13:22:58;27.70;33.50
3504;DHT22;1766;53.490;10.174;2022-10-18T13:25:13;27.90;33.20
3504;DHT22;1766;53.490;10.174;2022-10-18T13:27:30;27.90;33.00
3504;DHT22;1766;53.490;10.174;2022-10-18T13:29:49;27.80;32.80
3504;DHT22;1766;53.490;10.174;2022-10-18T13:32:02;27.80;32.80
3504;DHT22;1766;53.490;10.174;2022-10-18T13:34:23;27.90;32.60
3504;DHT22;1766;53.490;10.174;2022-10-18T13:36:30;28.10;32.00
3504;DHT22;1766;53.490;10.174;2022-10-18T13:38:44;28.50;32.00
3504;DHT22;1766;53.490;10.174;2022-10-18T13:40:59;29.00;31.60
3504;DHT22;1766;53.490;10.174;2022-10-18T13:45:56;29.60;30.10